Terminal Aerodrome Forecast
Issued by NWS

Home | Current Version | Previous Version | Text Only | Print | Product List | Glossary On
Versions: 1 2 3 4 5 6 7 8 9 10 11 12 13 14 15
000
FTUS43 KDTX 210530
TAFMBS
TAF
KMBS 210530Z 2106/2206 22012KT P6SM SCT035 OVC045
     FM211300 24016G26KT P6SM BKN050
     FM211600 24018G30KT P6SM SCT035 BKN045 PROB30 2117/2121
      25024G38KT P6SM SHRA OVC040
     FM220000 24014KT P6SM BKN060=

USA.gov is the U.S. government's official web portal to all federal, state and local government web resources and services.